createdAt,value
2023-03-26T00:01:37.641Z,10.18
2023-03-26T00:04:07.607Z,10.16
2023-03-26T00:06:39.933Z,10.15
2023-03-26T00:09:13.572Z,10.19
2023-03-26T00:11:40.773Z,10.11
2023-03-26T00:14:09.612Z,10.22
2023-03-26T00:16:36.645Z,10.10
2023-03-26T00:19:04.295Z,10.17
2023-03-26T00:21:31.888Z,10.18
2023-03-26T00:24:07.371Z,10.24
2023-03-26T00:26:38.125Z,10.23
2023-03-26T00:29:08.370Z,10.21
2023-03-26T00:31:37.977Z,10.24
2023-03-26T00:34:06.863Z,10.25
2023-03-26T00:36:36.069Z,10.19
2023-03-26T00:39:06.364Z,9.98
2023-03-26T00:41:37.281Z,9.97
2023-03-26T00:44:04.852Z,10.11
2023-03-26T00:46:32.401Z,10.14
2023-03-26T00:49:00.682Z,10.18
2023-03-26T00:51:28.850Z,10.22
2023-03-26T00:53:58.013Z,10.29
2023-03-26T00:56:25.711Z,10.33
2023-03-26T00:58:52.980Z,10.32
2023-03-26T01:01:27.937Z,10.34
2023-03-26T01:04:31.876Z,10.35
2023-03-26T01:07:13.792Z,10.22
2023-03-26T01:09:50.295Z,10.19
2023-03-26T01:12:24.128Z,10.21
2023-03-26T01:14:55.016Z,10.24
2023-03-26T01:17:24.345Z,10.22
2023-03-26T01:20:12.920Z,10.19
2023-03-26T01:22:53.306Z,10.13
2023-03-26T01:25:25.472Z,10.09
2023-03-26T01:27:56.629Z,10.13
2023-03-26T01:30:33.738Z,10.14
2023-03-26T01:34:24.842Z,10.12
2023-03-26T01:37:17.703Z,10.09
2023-03-26T01:40:08.887Z,10.12
2023-03-26T01:47:31.539Z,10.02
2023-03-26T01:50:39.228Z,10.06
2023-03-26T02:05:24.265Z,9.91
2023-03-26T02:08:11.987Z,9.76
2023-03-26T02:10:49.662Z,9.80
2023-03-26T02:13:17.186Z,9.78
2023-03-26T02:16:06.945Z,9.68
2023-03-26T02:18:41.922Z,9.55
2023-03-26T02:21:20.262Z,9.60
2023-03-26T02:23:57.879Z,9.66
2023-03-26T02:26:25.629Z,9.60
2023-03-26T02:28:52.871Z,9.63
2023-03-26T02:31:20.110Z,9.63
2023-03-26T02:33:49.609Z,9.69
2023-03-26T02:36:19.627Z,9.70
2023-03-26T02:38:46.976Z,9.75
2023-03-26T02:41:13.952Z,9.81
2023-03-26T02:43:41.075Z,9.82
2023-03-26T02:46:08.073Z,9.79
2023-03-26T02:48:35.430Z,9.81
2023-03-26T02:51:04.498Z,9.79
2023-03-26T02:53:31.718Z,9.77
2023-03-26T02:56:00.386Z,9.69
2023-03-26T02:58:30.153Z,9.68
2023-03-26T03:00:57.293Z,9.66
2023-03-26T03:03:27.397Z,9.63
2023-03-26T03:05:56.246Z,9.64
2023-03-26T03:08:28.194Z,9.63
2023-03-26T03:11:01.850Z,9.56
2023-03-26T03:13:29.618Z,9.53
2023-03-26T03:15:57.074Z,9.44
2023-03-26T03:18:24.586Z,9.43
2023-03-26T03:20:51.929Z,9.33
2023-03-26T03:23:19.128Z,9.37
2023-03-26T03:25:46.082Z,9.40
2023-03-26T03:28:13.968Z,9.44
2023-03-26T03:30:41.890Z,9.44
2023-03-26T03:33:09.156Z,9.54
2023-03-26T03:35:37.808Z,9.46
2023-03-26T03:38:05.002Z,9.44
2023-03-26T03:40:32.182Z,9.47
2023-03-26T03:42:59.415Z,9.51
2023-03-26T03:45:26.466Z,9.51
2023-03-26T03:47:54.078Z,9.48
2023-03-26T03:50:21.127Z,9.50
2023-03-26T03:52:48.285Z,9.56
2023-03-26T03:55:15.306Z,9.58
2023-03-26T03:57:42.485Z,9.48
2023-03-26T04:00:11.794Z,9.49
2023-03-26T04:02:43.023Z,9.56
2023-03-26T04:05:11.712Z,9.62
2023-03-26T04:07:39.572Z,9.67
2023-03-26T04:10:09.686Z,9.70
2023-03-26T04:12:36.993Z,9.68
2023-03-26T04:15:04.777Z,9.73
2023-03-26T04:17:32.010Z,9.82
2023-03-26T04:20:07.054Z,9.86
2023-03-26T04:22:34.458Z,9.93
2023-03-26T04:25:02.721Z,9.86
2023-03-26T04:27:35.399Z,9.87
2023-03-26T04:30:05.568Z,9.93
2023-03-26T04:32:34.357Z,9.87
2023-03-26T04:35:04.198Z,9.91
2023-03-26T04:37:39.858Z,9.95
2023-03-26T04:40:25.019Z,9.92
2023-03-26T04:42:54.699Z,9.94
2023-03-26T04:45:22.898Z,9.95
2023-03-26T04:47:50.887Z,9.90
2023-03-26T04:50:17.944Z,9.81
2023-03-26T04:52:45.687Z,9.74
2023-03-26T04:55:48.909Z,9.66
2023-03-26T04:58:16.868Z,9.64
2023-03-26T05:00:43.842Z,9.63
2023-03-26T05:03:11.860Z,9.60
2023-03-26T05:05:40.025Z,9.62
2023-03-26T05:08:07.346Z,9.56
2023-03-26T05:10:34.421Z,9.47
2023-03-26T05:13:01.578Z,9.48
2023-03-26T05:15:28.448Z,9.58
2023-03-26T05:17:56.130Z,9.55
2023-03-26T05:20:28.260Z,9.53
2023-03-26T05:22:56.385Z,9.57
2023-03-26T05:25:23.517Z,9.60
2023-03-26T05:27:50.923Z,9.61
2023-03-26T05:30:20.810Z,9.57
2023-03-26T05:32:49.595Z,9.54
2023-03-26T05:35:18.058Z,9.60
2023-03-26T05:37:47.069Z,9.61
2023-03-26T05:40:15.454Z,9.63
2023-03-26T05:42:43.599Z,9.66
2023-03-26T05:45:13.582Z,9.61
2023-03-26T05:47:41.259Z,9.62
2023-03-26T05:50:10.344Z,9.67
2023-03-26T05:52:37.938Z,9.70
2023-03-26T05:55:05.552Z,9.75
2023-03-26T05:57:33.245Z,9.67
2023-03-26T06:00:00.387Z,9.74
2023-03-26T06:02:29.469Z,9.81
2023-03-26T06:04:56.930Z,9.81
2023-03-26T06:07:24.174Z,9.72
2023-03-26T06:09:51.105Z,9.66
2023-03-26T06:12:18.321Z,9.61
2023-03-26T06:14:46.150Z,9.65
2023-03-26T06:17:13.846Z,9.66
2023-03-26T06:19:40.892Z,9.81
2023-03-26T06:22:08.104Z,9.85
2023-03-26T06:24:35.603Z,9.90
2023-03-26T06:27:02.996Z,9.91
2023-03-26T06:29:29.942Z,9.94
2023-03-26T06:32:03.451Z,9.88
2023-03-26T06:34:36.313Z,9.93
2023-03-26T06:37:06.312Z,10.07
2023-03-26T06:39:33.363Z,10.04
2023-03-26T06:42:00.749Z,10.13
2023-03-26T06:44:28.127Z,10.12
2023-03-26T06:46:55.546Z,10.22
2023-03-26T06:49:22.458Z,10.33
2023-03-26T06:51:49.851Z,10.42
2023-03-26T06:54:17.950Z,10.47
2023-03-26T06:56:45.282Z,10.43
2023-03-26T06:59:12.210Z,10.48
2023-03-26T07:01:39.464Z,10.46
2023-03-26T07:04:06.543Z,10.49
2023-03-26T07:06:33.767Z,10.52
2023-03-26T07:09:00.784Z,10.60
2023-03-26T07:11:28.905Z,10.40
2023-03-26T07:13:56.624Z,10.54
2023-03-26T07:16:23.945Z,10.50
2023-03-26T07:18:51.402Z,10.60
2023-03-26T07:21:19.895Z,10.63
2023-03-26T07:23:48.230Z,10.67
2023-03-26T07:26:49.125Z,10.66
2023-03-26T07:29:27.946Z,10.71
2023-03-26T07:32:18.583Z,10.69
2023-03-26T07:34:56.136Z,10.62
2023-03-26T07:37:28.938Z,10.70
2023-03-26T07:40:08.809Z,10.74
2023-03-26T07:42:53.953Z,10.69
2023-03-26T07:45:42.681Z,10.73
2023-03-26T07:48:25.419Z,10.90
2023-03-26T07:50:54.635Z,10.97
2023-03-26T07:53:22.748Z,11.00
2023-03-26T07:55:57.613Z,11.07
2023-03-26T07:58:36.464Z,11.12
2023-03-26T08:01:37.774Z,11.13
2023-03-26T08:04:33.251Z,11.16
2023-03-26T08:07:08.370Z,11.25
2023-03-26T08:10:03.724Z,11.27
2023-03-26T08:12:40.836Z,11.16
2023-03-26T08:15:39.859Z,11.27
2023-03-26T08:18:39.206Z,11.46
2023-03-26T08:21:17.217Z,11.53
2023-03-26T08:24:11.013Z,11.53
2023-03-26T08:27:18.782Z,11.56
2023-03-26T08:30:21.632Z,11.73
2023-03-26T08:33:11.528Z,11.83
2023-03-26T08:35:42.471Z,12.02
2023-03-26T08:38:16.433Z,12.10
2023-03-26T08:41:35.398Z,12.15
2023-03-26T08:44:47.693Z,12.35
2023-03-26T08:47:39.546Z,12.40
2023-03-26T08:50:31.139Z,12.52
2023-03-26T08:53:15.465Z,12.64
2023-03-26T08:56:00.281Z,12.65
2023-03-26T08:58:48.582Z,12.78
2023-03-26T09:01:55.066Z,12.82
2023-03-26T09:04:48.727Z,12.74
2023-03-26T09:08:10.604Z,12.73
2023-03-26T09:11:02.839Z,12.75
2023-03-26T09:13:44.745Z,12.71
2023-03-26T09:16:38.791Z,12.91
2023-03-26T09:19:40.500Z,13.07
2023-03-26T09:22:41.214Z,13.15
2023-03-26T09:25:56.465Z,13.17
2023-03-26T09:29:08.594Z,13.14
2023-03-26T09:31:58.104Z,13.13
2023-03-26T09:35:03.506Z,13.32
2023-03-26T09:37:59.309Z,13.21
2023-03-26T09:40:47.928Z,13.36
2023-03-26T09:43:52.168Z,13.35
2023-03-26T09:46:46.909Z,13.38
2023-03-26T09:49:42.123Z,13.54
2023-03-26T09:52:18.424Z,13.56
2023-03-26T09:55:49.916Z,13.62
2023-03-26T09:59:11.569Z,13.71
2023-03-26T10:02:18.882Z,13.81
2023-03-26T10:05:31.387Z,13.78
2023-03-26T10:08:33.334Z,13.80
2023-03-26T10:11:16.299Z,13.88
2023-03-26T10:14:18.872Z,13.93
2023-03-26T10:17:07.286Z,14.05
2023-03-26T10:20:04.768Z,14.10
2023-03-26T10:22:45.955Z,13.86
2023-03-26T10:25:54.426Z,13.88
2023-03-26T10:28:41.302Z,13.92
2023-03-26T10:31:35.752Z,13.95
2023-03-26T10:34:30.365Z,14.08
2023-03-26T10:37:12.344Z,14.05
2023-03-26T10:40:22.502Z,14.13
2023-03-26T10:43:25.725Z,14.07
2023-03-26T10:46:29.276Z,13.88
2023-03-26T10:49:16.579Z,13.87
2023-03-26T10:51:59.713Z,13.93
2023-03-26T10:54:55.784Z,13.85
2023-03-26T10:57:39.508Z,13.92
2023-03-26T11:00:26.195Z,14.10
2023-03-26T11:03:43.825Z,14.20
2023-03-26T11:06:50.421Z,14.14
2023-03-26T11:09:42.081Z,14.42
2023-03-26T11:12:30.362Z,14.57
2023-03-26T11:15:33.073Z,14.27
2023-03-26T11:18:20.313Z,14.42
2023-03-26T11:21:20.685Z,14.41
2023-03-26T11:24:44.974Z,14.42
2023-03-26T11:27:50.721Z,14.30
2023-03-26T11:30:42.530Z,14.21
2023-03-26T11:33:37.617Z,14.02
2023-03-26T11:36:19.525Z,14.16
2023-03-26T11:38:50.740Z,14.28
2023-03-26T11:41:26.241Z,14.38
2023-03-26T11:44:07.226Z,14.19
2023-03-26T11:46:42.621Z,14.34
2023-03-26T11:49:14.708Z,14.29
2023-03-26T11:51:47.405Z,14.36
2023-03-26T11:54:16.454Z,14.37
2023-03-26T11:57:26.753Z,14.39
2023-03-26T12:00:18.211Z,14.32
2023-03-26T12:02:47.707Z,14.41
2023-03-26T12:05:26.489Z,14.39
2023-03-26T12:07:59.315Z,14.34
2023-03-26T12:10:42.942Z,14.45
2023-03-26T12:13:28.236Z,14.59
2023-03-26T12:16:20.763Z,14.61
2023-03-26T12:19:05.500Z,14.40
2023-03-26T12:21:51.595Z,14.34
2023-03-26T12:24:44.945Z,14.04
2023-03-26T12:27:28.355Z,13.94
2023-03-26T12:30:23.911Z,13.90
2023-03-26T12:32:55.951Z,13.90
2023-03-26T12:35:30.241Z,13.89
2023-03-26T12:38:24.579Z,13.98
2023-03-26T12:44:42.331Z,14.09
2023-03-26T12:44:59.352Z,14.24
2023-03-26T12:48:01.815Z,14.07
2023-03-26T12:50:34.027Z,14.27
2023-03-26T12:53:38.537Z,14.29
2023-03-26T12:56:38.654Z,14.04
2023-03-26T12:59:44.616Z,13.86
2023-03-26T13:02:59.100Z,13.75
2023-03-26T13:06:23.735Z,13.78
2023-03-26T13:09:27.778Z,13.89
2023-03-26T13:12:41.800Z,13.85
2023-03-26T13:15:31.264Z,13.89
2023-03-26T13:18:27.388Z,13.86
2023-03-26T13:21:09.665Z,13.64
2023-03-26T13:24:00.879Z,13.64
2023-03-26T13:27:27.049Z,13.64
2023-03-26T13:30:22.300Z,13.57
2023-03-26T13:33:35.922Z,13.61
2023-03-26T13:36:23.380Z,13.34
2023-03-26T13:39:26.245Z,13.42
2023-03-26T13:42:15.944Z,13.22
2023-03-26T13:45:07.439Z,13.13
2023-03-26T13:47:41.117Z,12.95
2023-03-26T13:50:28.690Z,12.92
2023-03-26T13:52:58.980Z,12.60
2023-03-26T13:55:38.556Z,12.40
2023-03-26T13:58:22.047Z,12.25
2023-03-26T14:00:58.501Z,12.06
2023-03-26T14:04:03.920Z,11.89
2023-03-26T14:06:54.225Z,11.74
2023-03-26T14:10:01.948Z,11.49
2023-03-26T14:12:52.473Z,11.33
2023-03-26T14:15:28.535Z,11.29
2023-03-26T14:18:25.917Z,11.29
2023-03-26T14:21:54.645Z,11.36
2023-03-26T14:24:49.686Z,11.44
2023-03-26T14:27:44.411Z,11.51
2023-03-26T14:30:17.910Z,11.49
2023-03-26T14:33:27.848Z,11.47
2023-03-26T14:36:05.671Z,11.48
2023-03-26T14:39:13.867Z,11.53
2023-03-26T14:42:32.408Z,11.59
2023-03-26T14:45:49.552Z,11.63
2023-03-26T14:48:55.921Z,11.60
2023-03-26T14:51:53.495Z,11.56
2023-03-26T14:54:27.300Z,11.52
2023-03-26T14:57:18.904Z,11.47
2023-03-26T14:59:58.391Z,11.34
2023-03-26T15:03:24.676Z,11.32
2023-03-26T15:06:15.430Z,11.23
2023-03-26T15:09:22.867Z,11.19
2023-03-26T15:12:22.093Z,11.20
2023-03-26T15:15:39.044Z,11.20
2023-03-26T15:18:49.615Z,11.18
2023-03-26T15:22:26.633Z,11.18
2023-03-26T15:25:16.821Z,11.22
2023-03-26T15:28:20.568Z,11.19
2023-03-26T15:31:18.998Z,11.21
2023-03-26T15:34:20.172Z,11.13
2023-03-26T15:37:30.669Z,11.09
2023-03-26T15:40:16.547Z,10.95
2023-03-26T15:43:12.207Z,10.94
2023-03-26T15:46:25.284Z,10.82
2023-03-26T15:49:19.731Z,10.81
2023-03-26T15:52:13.069Z,10.79
2023-03-26T15:55:18.140Z,10.71
2023-03-26T15:58:28.129Z,10.63
2023-03-26T16:01:21.183Z,10.59
2023-03-26T16:04:10.701Z,10.61
2023-03-26T16:07:03.778Z,10.68
2023-03-26T16:09:48.053Z,10.74
2023-03-26T16:12:57.558Z,10.70
2023-03-26T16:15:29.978Z,10.66
2023-03-26T16:18:10.392Z,10.63
2023-03-26T16:20:50.697Z,10.68
2023-03-26T16:23:47.581Z,10.63
2023-03-26T16:26:44.108Z,10.63
2023-03-26T16:29:14.403Z,10.60
2023-03-26T16:32:35.493Z,10.55
2023-03-26T16:35:55.280Z,10.59
2023-03-26T16:38:25.033Z,10.62
2023-03-26T16:41:03.629Z,10.61
2023-03-26T16:43:46.840Z,10.64
2023-03-26T16:46:53.354Z,10.65
2023-03-26T16:50:08.967Z,10.62
2023-03-26T16:53:02.762Z,10.61
2023-03-26T16:55:43.881Z,10.60
2023-03-26T16:58:10.934Z,10.63
2023-03-26T17:00:59.890Z,10.58
2023-03-26T17:04:02.724Z,10.60
2023-03-26T17:06:56.789Z,10.55
2023-03-26T17:10:09.771Z,10.58
2023-03-26T17:12:45.313Z,10.69
2023-03-26T17:16:04.245Z,10.74
2023-03-26T17:19:24.598Z,10.76
2023-03-26T17:22:37.517Z,10.74
2023-03-26T17:25:32.013Z,10.60
2023-03-26T17:28:24.208Z,10.63
2023-03-26T17:31:15.882Z,10.63
2023-03-26T17:33:43.652Z,10.70
2023-03-26T17:36:16.517Z,10.61
2023-03-26T17:38:47.152Z,10.51
2023-03-26T17:42:01.326Z,10.63
2023-03-26T17:44:57.758Z,10.60
2023-03-26T17:47:38.315Z,10.57
2023-03-26T17:50:17.960Z,10.61
2023-03-26T17:53:01.708Z,10.53
2023-03-26T17:55:40.651Z,10.49
2023-03-26T17:58:29.755Z,10.44
2023-03-26T18:01:06.411Z,10.37
2023-03-26T18:03:44.887Z,10.35
2023-03-26T18:06:57.058Z,10.35
2023-03-26T18:09:57.108Z,10.31
2023-03-26T18:12:33.533Z,10.26
2023-03-26T18:15:28.985Z,10.19
2023-03-26T18:18:19.779Z,10.23
2023-03-26T18:20:49.356Z,10.22
2023-03-26T18:23:39.079Z,10.19
2023-03-26T18:26:32.469Z,10.25
2023-03-26T18:29:29.509Z,10.29
2023-03-26T18:32:09.368Z,10.32
2023-03-26T18:34:52.688Z,10.31
2023-03-26T18:37:27.970Z,10.33
2023-03-26T18:40:16.261Z,10.32
2023-03-26T18:42:48.664Z,10.34
2023-03-26T18:45:38.692Z,10.37
2023-03-26T18:48:17.795Z,10.43
2023-03-26T18:50:47.538Z,10.47
2023-03-26T18:53:20.810Z,10.46
2023-03-26T18:55:50.692Z,10.44
2023-03-26T18:58:34.409Z,10.42
2023-03-26T19:01:20.125Z,10.39
2023-03-26T19:03:51.774Z,10.40
2023-03-26T19:06:21.296Z,10.36
2023-03-26T19:08:49.601Z,10.31
2023-03-26T19:11:18.074Z,10.31
2023-03-26T19:14:00.002Z,10.30
2023-03-26T19:16:34.027Z,10.30
2023-03-26T19:19:06.928Z,10.27
2023-03-26T19:21:36.591Z,10.29
2023-03-26T19:24:05.574Z,10.24
2023-03-26T19:26:33.420Z,10.21
2023-03-26T19:29:00.992Z,10.18
2023-03-26T19:31:34.495Z,10.19
2023-03-26T19:34:15.687Z,10.16
2023-03-26T19:37:21.994Z,10.12
2023-03-26T19:39:55.442Z,10.12
2023-03-26T19:42:43.725Z,10.12
2023-03-26T19:45:23.596Z,10.09
2023-03-26T19:48:03.661Z,10.08
2023-03-26T19:50:42.255Z,10.04
2023-03-26T19:53:18.968Z,10.04
2023-03-26T19:56:14.639Z,10.01
2023-03-26T19:58:43.043Z,10.04
2023-03-26T20:01:21.093Z,10.00
2023-03-26T20:03:58.043Z,9.98
2023-03-26T20:06:42.514Z,9.96
2023-03-26T20:09:13.636Z,9.94
2023-03-26T20:11:41.231Z,9.93
2023-03-26T20:14:18.236Z,9.88
2023-03-26T20:16:46.001Z,9.87
2023-03-26T20:19:15.256Z,9.93
2023-03-26T20:21:44.361Z,9.92
2023-03-26T20:24:17.914Z,9.92
2023-03-26T20:26:46.410Z,9.93
2023-03-26T20:29:15.048Z,9.89
2023-03-26T20:31:43.266Z,9.84
2023-03-26T20:34:26.201Z,9.82
2023-03-26T20:36:57.155Z,9.80
2023-03-26T20:39:28.705Z,9.75
2023-03-26T20:41:56.532Z,9.67
2023-03-26T20:44:26.794Z,9.61
2023-03-26T20:46:56.507Z,9.56
2023-03-26T20:49:25.186Z,9.49
2023-03-26T20:51:52.070Z,9.45
2023-03-26T20:54:23.555Z,9.41
2023-03-26T20:56:52.517Z,9.40
2023-03-26T20:59:26.578Z,9.38
2023-03-26T21:01:56.865Z,9.35
2023-03-26T21:04:24.989Z,9.34
2023-03-26T21:06:57.588Z,9.27
2023-03-26T21:09:34.193Z,9.25
2023-03-26T21:12:15.315Z,9.26
2023-03-26T21:14:44.213Z,9.26
2023-03-26T21:17:19.128Z,9.28
2023-03-26T21:19:47.319Z,9.29
2023-03-26T21:22:22.673Z,9.33
2023-03-26T21:25:17.368Z,9.35
2023-03-26T21:27:54.849Z,9.36
2023-03-26T21:30:22.396Z,9.38
2023-03-26T21:32:50.372Z,9.42
2023-03-26T21:35:19.091Z,9.43
2023-03-26T21:37:50.805Z,9.46
2023-03-26T21:40:19.488Z,9.44
2023-03-26T21:42:50.206Z,9.45
2023-03-26T21:45:19.082Z,9.43
2023-03-26T21:47:46.654Z,9.41
2023-03-26T21:50:22.227Z,9.41
2023-03-26T21:52:51.795Z,9.40
2023-03-26T21:55:23.632Z,9.40
2023-03-26T21:58:13.412Z,9.36
2023-03-26T22:01:02.734Z,9.33
2023-03-26T22:03:55.475Z,9.30
2023-03-26T22:06:46.032Z,9.27
2023-03-26T22:09:15.084Z,9.31
2023-03-26T22:11:44.225Z,9.28
2023-03-26T22:14:13.349Z,9.22
2023-03-26T22:16:41.711Z,9.15
2023-03-26T22:19:09.015Z,9.10
2023-03-26T22:21:36.363Z,9.06
2023-03-26T22:24:07.107Z,8.99
2023-03-26T22:26:36.426Z,8.94
2023-03-26T22:29:05.190Z,8.91
2023-03-26T22:31:32.476Z,8.87
2023-03-26T22:33:59.452Z,8.81
2023-03-26T22:36:27.467Z,8.79
2023-03-26T22:38:55.344Z,8.76
2023-03-26T22:41:23.459Z,8.75
2023-03-26T22:43:53.628Z,8.78
2023-03-26T22:46:22.780Z,8.77
2023-03-26T22:48:50.862Z,8.70
2023-03-26T22:51:18.621Z,8.73
2023-03-26T22:53:45.979Z,8.82
2023-03-26T22:56:14.354Z,8.87
2023-03-26T22:58:42.305Z,8.94
2023-03-26T23:01:18.048Z,8.93
2023-03-26T23:03:45.547Z,8.91
2023-03-26T23:06:13.525Z,8.86
2023-03-26T23:08:41.216Z,8.86
2023-03-26T23:11:21.956Z,8.85
2023-03-26T23:13:49.752Z,8.80
2023-03-26T23:16:18.102Z,8.83
2023-03-26T23:18:45.805Z,8.85
2023-03-26T23:21:20.853Z,8.82
2023-03-26T23:23:52.189Z,8.84
2023-03-26T23:26:19.543Z,8.85
2023-03-26T23:28:46.999Z,8.78
2023-03-26T23:31:14.525Z,8.65
2023-03-26T23:33:45.896Z,8.52
2023-03-26T23:36:18.387Z,8.54
2023-03-26T23:38:48.249Z,8.61
2023-03-26T23:41:21.505Z,8.66
2023-03-26T23:43:55.859Z,8.68
2023-03-26T23:46:30.267Z,8.74
2023-03-26T23:49:00.118Z,8.80
2023-03-26T23:51:30.188Z,8.87
2023-03-26T23:53:57.822Z,8.91
2023-03-26T23:56:27.097Z,8.95
2023-03-26T23:58:55.301Z,8.98
